Time,TemperatureF,DewpointF,PressureIn,WindDirection,WindDirectionDegrees,WindSpeedMPH,WindSpeedGustMPH,Humidity,HourlyPrecipIn,Conditions,Clouds,dailyrainin,SoftwareType,DateUTC
2013-04-08 00:02:00,45.0,18.0,-100.00,West,273,3.0,9.0,33,-99.99,,,-99.99,,2013-04-08 06:02:00,
2013-04-08 00:12:00,46.0,17.0,-100.00,WNW,292,12.0,14.0,30,-99.99,,,-99.99,,2013-04-08 06:12:00,
2013-04-08 00:21:00,45.0,18.0,-100.00,WNW,300,3.0,13.0,32,-99.99,,,-99.99,,2013-04-08 06:21:00,
2013-04-08 00:32:00,46.0,16.0,-100.00,WSW,237,11.0,18.0,28,-99.99,,,-99.99,,2013-04-08 06:32:00,
2013-04-08 00:42:00,46.0,17.0,-100.00,NW,326,11.0,13.0,31,-99.99,,,-99.99,,2013-04-08 06:42:00,
2013-04-08 00:52:00,46.0,17.0,-100.00,WNW,288,18.0,28.0,30,-99.99,,,-99.99,,2013-04-08 06:52:00,
2013-04-08 01:02:00,47.0,17.0,-100.00,West,272,21.0,33.0,30,-99.99,,,-99.99,,2013-04-08 07:02:00,
2013-04-08 01:12:00,46.0,18.0,-100.00,West,266,7.0,23.0,32,-99.99,,,-99.99,,2013-04-08 07:12:00,
2013-04-08 01:22:00,46.0,17.0,-100.00,WSW,247,8.0,13.0,31,-99.99,,,-99.99,,2013-04-08 07:22:00,
2013-04-08 01:32:00,46.0,17.0,-100.00,WSW,247,8.0,13.0,31,-99.99,,,-99.99,,2013-04-08 07:32:00,
2013-04-08 01:42:00,46.0,18.0,-100.00,SSW,204,3.0,13.0,32,-99.99,,,-99.99,,2013-04-08 07:42:00,
2013-04-08 01:52:00,44.0,20.0,-100.00,ESE,107,12.0,12.0,36,-99.99,,,-99.99,,2013-04-08 07:52:00,
2013-04-08 02:02:00,44.0,19.0,-100.00,ESE,106,12.0,16.0,36,-99.99,,,-99.99,,2013-04-08 08:02:00,
2013-04-08 02:11:00,44.0,19.0,-100.00,ESE,106,12.0,16.0,36,-99.99,,,-99.99,,2013-04-08 08:11:00,
2013-04-08 02:21:00,44.0,19.0,-100.00,ESE,106,12.0,16.0,36,-99.99,,,-99.99,,2013-04-08 08:21:00,
2013-04-08 02:32:00,44.0,19.0,-100.00,ESE,106,12.0,16.0,36,-99.99,,,-99.99,,2013-04-08 08:32:00,
2013-04-08 02:42:00,47.0,16.0,-100.00,SSE,153,12.0,16.0,28,-99.99,,,-99.99,,2013-04-08 08:42:00,
2013-04-08 02:52:00,47.0,16.0,-100.00,SSE,153,12.0,16.0,28,-99.99,,,-99.99,,2013-04-08 08:52:00,
2013-04-08 03:01:00,46.0,17.0,-100.00,WSW,247,9.0,16.0,31,-99.99,,,-99.99,,2013-04-08 09:01:00,
2013-04-08 03:12:00,46.0,17.0,-100.00,WSW,247,9.0,16.0,31,-99.99,,,-99.99,,2013-04-08 09:12:00,
2013-04-08 03:22:00,47.0,15.0,-100.00,WNW,286,8.0,16.0,28,-99.99,,,-99.99,,2013-04-08 09:22:00,
2013-04-08 03:32:00,46.0,16.0,-100.00,West,261,9.0,13.0,29,-99.99,,,-99.99,,2013-04-08 09:32:00,
2013-04-08 03:42:00,46.0,18.0,-100.00,SW,230,15.0,24.0,32,-99.99,,,-99.99,,2013-04-08 09:42:00,
2013-04-08 03:52:00,45.0,18.0,-100.00,WNW,293,10.0,18.0,33,-99.99,,,-99.99,,2013-04-08 09:52:00,
2013-04-08 04:03:00,44.0,22.0,-100.00,WNW,283,13.0,16.0,40,-99.99,,,-99.99,,2013-04-08 10:03:00,
2013-04-08 04:12:00,44.0,22.0,-100.00,WNW,282,13.0,18.0,42,-99.99,,,-99.99,,2013-04-08 10:12:00,
2013-04-08 04:23:00,43.0,23.0,-100.00,WNW,284,10.0,13.0,45,-99.99,,,-99.99,,2013-04-08 10:23:00,
2013-04-08 04:32:00,42.0,24.0,-100.00,WSW,240,9.0,15.0,48,-99.99,,,-99.99,,2013-04-08 10:32:00,
2013-04-08 04:42:00,41.0,25.0,-100.00,South,190,14.0,20.0,51,-99.99,,,-99.99,,2013-04-08 10:42:00,
2013-04-08 04:52:00,41.0,25.0,-100.00,South,169,7.0,12.0,53,-99.99,,,-99.99,,2013-04-08 10:52:00,
2013-04-08 05:02:00,41.0,26.0,-100.00,South,182,12.0,13.0,54,-99.99,,,-99.99,,2013-04-08 11:02:00,
2013-04-08 05:12:00,40.0,27.0,-100.00,South,169,12.0,14.0,57,-99.99,,,-99.99,,2013-04-08 11:12:00,
2013-04-08 05:22:00,39.0,29.0,-100.00,SSE,152,9.0,13.0,66,-99.99,,,-99.99,,2013-04-08 11:22:00,
2013-04-08 05:32:00,39.0,29.0,-100.00,SSE,152,9.0,13.0,66,-99.99,,,-99.99,,2013-04-08 11:32:00,
2013-04-08 05:42:00,38.0,29.0,-100.00,ESE,110,10.0,11.0,69,-99.99,,,-99.99,,2013-04-08 11:42:00,
2013-04-08 05:52:00,38.0,29.0,-100.00,ESE,110,10.0,11.0,69,-99.99,,,-99.99,,2013-04-08 11:52:00,
2013-04-08 06:01:00,38.0,29.0,-100.00,ESE,118,10.0,12.0,69,-99.99,,,-99.99,,2013-04-08 12:01:00,
2013-04-08 06:12:00,38.0,29.0,-100.00,East,98,11.0,13.0,71,-99.99,,,-99.99,,2013-04-08 12:12:00,
2013-04-08 06:21:00,38.0,30.0,-100.00,East,98,12.0,14.0,73,-99.99,,,-99.99,,2013-04-08 12:21:00,
2013-04-08 06:32:00,37.0,31.0,-100.00,East,95,11.0,13.0,78,-99.99,,,-99.99,,2013-04-08 12:32:00,
2013-04-08 06:42:00,36.0,31.0,-100.00,East,101,11.0,12.0,80,-99.99,,,-99.99,,2013-04-08 12:42:00,
2013-04-08 06:52:00,36.0,31.0,-100.00,East,81,9.0,11.0,82,-99.99,,,-99.99,,2013-04-08 12:52:00,
2013-04-08 07:02:00,36.0,32.0,-100.00,East,92,8.0,9.0,84,-99.99,,,-99.99,,2013-04-08 13:02:00,
2013-04-08 07:12:00,35.0,31.0,-100.00,ENE,61,6.0,10.0,83,-99.99,,,-99.99,,2013-04-08 13:12:00,
2013-04-08 07:22:00,35.0,31.0,-100.00,ENE,60,7.0,9.0,84,-99.99,,,-99.99,,2013-04-08 13:22:00,
2013-04-08 07:32:00,35.0,31.0,-100.00,NE,52,7.0,11.0,85,-99.99,,,-99.99,,2013-04-08 13:32:00,
2013-04-08 07:42:00,35.0,31.0,-100.00,NNE,32,6.0,9.0,85,-99.99,,,-99.99,,2013-04-08 13:42:00,
2013-04-08 07:52:00,35.0,31.0,-100.00,NNE,20,3.0,7.0,84,-99.99,,,-99.99,,2013-04-08 13:52:00,
2013-04-08 08:02:00,35.0,31.0,-100.00,NW,307,6.0,7.0,84,-99.99,,,-99.99,,2013-04-08 14:02:00,
2013-04-08 08:12:00,35.0,31.0,-100.00,NNW,331,11.0,13.0,86,-99.99,,,-99.99,,2013-04-08 14:12:00,
2013-04-08 08:22:00,35.0,31.0,-100.00,North,349,8.0,10.0,85,-99.99,,,-99.99,,2013-04-08 14:22:00,
2013-04-08 08:32:00,35.0,31.0,-100.00,North,6,11.0,15.0,83,-99.99,,,-99.99,,2013-04-08 14:32:00,
2013-04-08 08:42:00,35.0,31.0,-100.00,North,6,11.0,15.0,83,-99.99,,,-99.99,,2013-04-08 14:42:00,
2013-04-08 08:52:00,35.0,31.0,-100.00,ENE,57,2.0,12.0,84,-99.99,,,-99.99,,2013-04-08 14:52:00,
2013-04-08 09:02:00,34.0,31.0,-100.00,SSW,203,3.0,4.0,85,-99.99,,,-99.99,,2013-04-08 15:02:00,
2013-04-08 09:12:00,33.0,30.0,-100.00,WNW,289,3.0,4.0,89,-99.99,,,-99.99,,2013-04-08 15:12:00,
2013-04-08 09:22:00,33.0,30.0,-100.00,WNW,282,7.0,7.0,90,-99.99,,,-99.99,,2013-04-08 15:22:00,
2013-04-08 09:33:00,32.0,30.0,-100.00,NW,306,10.0,12.0,92,-99.99,,,-99.99,,2013-04-08 15:33:00,
2013-04-08 09:42:00,32.0,30.0,-100.00,NW,306,10.0,12.0,92,-99.99,,,-99.99,,2013-04-08 15:42:00,
2013-04-08 09:52:00,32.0,31.0,-100.00,NW,307,10.0,13.0,93,-99.99,,,-99.99,,2013-04-08 15:52:00,
2013-04-08 10:02:00,32.0,31.0,-100.00,NW,308,12.0,17.0,94,-99.99,,,-99.99,,2013-04-08 16:02:00,
2013-04-08 10:12:00,32.0,31.0,-100.00,WNW,292,10.0,16.0,94,-99.99,,,-99.99,,2013-04-08 16:12:00,
2013-04-08 10:22:00,33.0,31.0,-100.00,WNW,288,9.0,14.0,94,-99.99,,,-99.99,,2013-04-08 16:22:00,
2013-04-08 10:32:00,32.0,31.0,-100.00,NW,305,12.0,14.0,94,-99.99,,,-99.99,,2013-04-08 16:32:00,
2013-04-08 10:42:00,32.0,31.0,-100.00,NW,305,12.0,14.0,94,-99.99,,,-99.99,,2013-04-08 16:42:00,
2013-04-08 10:52:00,34.0,33.0,-100.00,WNW,293,10.0,14.0,94,-99.99,,,-99.99,,2013-04-08 16:52:00,
2013-04-08 11:02:00,34.0,33.0,-100.00,WNW,293,10.0,14.0,94,-99.99,,,-99.99,,2013-04-08 17:02:00,
2013-04-08 11:12:00,34.0,32.0,-100.00,NW,320,11.0,17.0,93,-99.99,,,-99.99,,2013-04-08 17:12:00,
2013-04-08 11:22:00,34.0,32.0,-100.00,WNW,291,11.0,13.0,92,-99.99,,,-99.99,,2013-04-08 17:22:00,
2013-04-08 11:32:00,33.0,31.0,-100.00,WNW,295,14.0,15.0,93,-99.99,,,-99.99,,2013-04-08 17:32:00,
2013-04-08 11:42:00,35.0,33.0,-100.00,WNW,297,7.0,13.0,94,-99.99,,,-99.99,,2013-04-08 17:42:00,
2013-04-08 11:52:00,34.0,32.0,-100.00,WNW,288,14.0,15.0,93,-99.99,,,-99.99,,2013-04-08 17:52:00,
2013-04-08 12:02:00,34.0,33.0,-100.00,NW,307,8.0,16.0,94,-99.99,,,-99.99,,2013-04-08 18:02:00,
2013-04-08 12:11:00,35.0,33.0,-100.00,NNW,336,8.0,18.0,93,-99.99,,,-99.99,,2013-04-08 18:11:00,
2013-04-08 12:22:00,35.0,33.0,-100.00,NNW,336,8.0,18.0,93,-99.99,,,-99.99,,2013-04-08 18:22:00,
2013-04-08 12:32:00,34.0,32.0,-100.00,NNW,345,12.0,17.0,91,-99.99,,,-99.99,,2013-04-08 18:32:00,
2013-04-08 12:42:00,34.0,32.0,-100.00,NW,325,18.0,22.0,91,-99.99,,,-99.99,,2013-04-08 18:42:00,
2013-04-08 12:52:00,33.0,31.0,-100.00,WNW,299,17.0,23.0,93,-99.99,,,-99.99,,2013-04-08 18:52:00,
2013-04-08 13:12:00,35.0,33.0,-100.00,North,360,16.0,20.0,92,-99.99,,,-99.99,,2013-04-08 19:12:00,
2013-04-08 13:22:00,35.0,33.0,-100.00,North,360,16.0,20.0,92,-99.99,,,-99.99,,2013-04-08 19:22:00,
2013-04-08 13:33:00,38.0,35.0,-100.00,NNW,345,12.0,21.0,89,-99.99,,,-99.99,,2013-04-08 19:33:00,
2013-04-08 13:42:00,34.0,32.0,-100.00,NNW,327,12.0,24.0,91,-99.99,,,-99.99,,2013-04-08 19:42:00,
2013-04-08 13:52:00,34.0,32.0,-100.00,NNW,327,12.0,24.0,91,-99.99,,,-99.99,,2013-04-08 19:52:00,
2013-04-08 14:02:00,33.0,31.0,-100.00,NW,316,17.0,19.0,92,-99.99,,,-99.99,,2013-04-08 20:02:00,
2013-04-08 14:12:00,33.0,32.0,-100.00,NW,323,19.0,23.0,93,-99.99,,,-99.99,,2013-04-08 20:12:00,
2013-04-08 14:22:00,33.0,31.0,-100.00,NNW,327,15.0,24.0,93,-99.99,,,-99.99,,2013-04-08 20:22:00,
2013-04-08 14:32:00,32.0,31.0,-100.00,NW,321,15.0,20.0,93,-99.99,,,-99.99,,2013-04-08 20:32:00,
2013-04-08 14:42:00,32.0,30.0,-100.00,NW,309,15.0,19.0,94,-99.99,,,-99.99,,2013-04-08 20:42:00,
2013-04-08 14:52:00,31.0,30.0,-100.00,NW,322,16.0,18.0,95,-99.99,,,-99.99,,2013-04-08 20:52:00,
2013-04-08 15:01:00,31.0,30.0,-100.00,NW,318,10.0,18.0,95,-99.99,,,-99.99,,2013-04-08 21:01:00,
2013-04-08 15:12:00,31.0,30.0,-100.00,NW,326,9.0,14.0,95,-99.99,,,-99.99,,2013-04-08 21:12:00,
2013-04-08 15:22:00,31.0,30.0,-100.00,NW,305,12.0,15.0,95,-99.99,,,-99.99,,2013-04-08 21:22:00,
2013-04-08 15:32:00,31.0,30.0,-100.00,NW,323,12.0,15.0,95,-99.99,,,-99.99,,2013-04-08 21:32:00,
2013-04-08 15:42:00,31.0,30.0,-100.00,NNW,327,11.0,13.0,95,-99.99,,,-99.99,,2013-04-08 21:42:00,
2013-04-08 15:52:00,32.0,31.0,-100.00,NW,325,10.0,14.0,95,-99.99,,,-99.99,,2013-04-08 21:52:00,
2013-04-08 16:02:00,32.0,31.0,-100.00,NNW,330,11.0,15.0,95,-99.99,,,-99.99,,2013-04-08 22:02:00,
2013-04-08 16:12:00,32.0,31.0,-100.00,NW,326,14.0,18.0,96,-99.99,,,-99.99,,2013-04-08 22:12:00,
2013-04-08 16:22:00,32.0,31.0,-100.00,NW,326,16.0,20.0,96,-99.99,,,-99.99,,2013-04-08 22:22:00,
2013-04-08 16:32:00,32.0,31.0,-100.00,NNW,333,14.0,20.0,95,-99.99,,,-99.99,,2013-04-08 22:32:00,
2013-04-08 16:42:00,32.0,31.0,-100.00,NNW,333,14.0,20.0,95,-99.99,,,-99.99,,2013-04-08 22:42:00,
2013-04-08 16:52:00,32.0,31.0,-100.00,NNW,337,15.0,20.0,95,-99.99,,,-99.99,,2013-04-08 22:52:00,
2013-04-08 17:02:00,32.0,31.0,-100.00,NNW,335,13.0,19.0,95,-99.99,,,-99.99,,2013-04-08 23:02:00,
2013-04-08 17:12:00,32.0,31.0,-100.00,NNW,330,14.0,19.0,96,-99.99,,,-99.99,,2013-04-08 23:12:00,
2013-04-08 17:22:00,32.0,31.0,-100.00,NNW,330,14.0,19.0,96,-99.99,,,-99.99,,2013-04-08 23:22:00,
2013-04-08 17:32:00,32.0,31.0,-100.00,NNW,329,15.0,18.0,96,-99.99,,,-99.99,,2013-04-08 23:32:00,
2013-04-08 17:42:00,32.0,31.0,-100.00,NNW,333,15.0,18.0,96,-99.99,,,-99.99,,2013-04-08 23:42:00,
2013-04-08 17:52:00,32.0,31.0,-100.00,NNW,341,9.0,20.0,96,-99.99,,,-99.99,,2013-04-08 23:52:00,
2013-04-08 18:02:00,32.0,31.0,-100.00,NNW,328,11.0,16.0,96,-99.99,,,-99.99,,2013-04-09 00:02:00,
2013-04-08 18:12:00,32.0,31.0,-100.00,NNW,328,11.0,16.0,96,-99.99,,,-99.99,,2013-04-09 00:12:00,
2013-04-08 18:22:00,32.0,31.0,-100.00,NNW,338,11.0,15.0,96,-99.99,,,-99.99,,2013-04-09 00:22:00,
2013-04-08 18:32:00,32.0,31.0,-100.00,NNW,332,10.0,15.0,96,-99.99,,,-99.99,,2013-04-09 00:32:00,
2013-04-08 18:42:00,32.0,31.0,-100.00,NNW,332,10.0,15.0,96,-99.99,,,-99.99,,2013-04-09 00:42:00,
2013-04-08 18:52:00,32.0,31.0,-100.00,NNW,344,5.0,11.0,96,-99.99,,,-99.99,,2013-04-09 00:52:00,
2013-04-08 19:02:00,32.0,31.0,-100.00,NNW,344,5.0,11.0,96,-99.99,,,-99.99,,2013-04-09 01:02:00,
2013-04-08 19:12:00,32.0,31.0,-100.00,NNW,343,7.0,10.0,96,-99.99,,,-99.99,,2013-04-09 01:12:00,
2013-04-08 19:22:00,32.0,31.0,-100.00,NNW,344,8.0,11.0,96,-99.99,,,-99.99,,2013-04-09 01:22:00,
2013-04-08 19:32:00,32.0,31.0,-100.00,North,352,10.0,13.0,96,-99.99,,,-99.99,,2013-04-09 01:32:00,
2013-04-08 19:42:00,32.0,31.0,-100.00,NNW,337,9.0,14.0,96,-99.99,,,-99.99,,2013-04-09 01:42:00,
2013-04-08 19:52:00,32.0,31.0,-100.00,NNW,333,13.0,15.0,96,-99.99,,,-99.99,,2013-04-09 01:52:00,
2013-04-08 20:02:00,32.0,31.0,-100.00,NNW,336,10.0,16.0,96,-99.99,,,-99.99,,2013-04-09 02:02:00,
2013-04-08 20:12:00,32.0,31.0,-100.00,NW,323,10.0,12.0,96,-99.99,,,-99.99,,2013-04-09 02:12:00,
2013-04-08 20:22:00,32.0,31.0,-100.00,NNW,334,9.0,15.0,97,-99.99,,,-99.99,,2013-04-09 02:22:00,
2013-04-08 20:32:00,32.0,31.0,-100.00,NNW,330,12.0,17.0,97,-99.99,,,-99.99,,2013-04-09 02:32:00,
2013-04-08 20:42:00,31.0,31.0,-100.00,NNW,344,14.0,20.0,97,-99.99,,,-99.99,,2013-04-09 02:42:00,
2013-04-08 20:52:00,31.0,30.0,-100.00,NNW,337,16.0,27.0,97,-99.99,,,-99.99,,2013-04-09 02:52:00,
2013-04-08 21:02:00,30.0,30.0,-100.00,North,351,18.0,31.0,97,-99.99,,,-99.99,,2013-04-09 03:02:00,
2013-04-08 21:12:00,27.0,26.0,-100.00,North,7,27.0,36.0,96,-99.99,,,-99.99,,2013-04-09 03:12:00,
2013-04-08 21:21:00,27.0,26.0,-100.00,North,7,27.0,36.0,96,-99.99,,,-99.99,,2013-04-09 03:21:00,
2013-04-08 21:32:00,27.0,26.0,-100.00,North,1,29.0,35.0,96,-99.99,,,-99.99,,2013-04-09 03:32:00,
2013-04-08 21:42:00,26.0,25.0,-100.00,North,2,26.0,38.0,96,-99.99,,,-99.99,,2013-04-09 03:42:00,
2013-04-08 21:52:00,25.0,24.0,-100.00,North,355,28.0,34.0,95,-99.99,,,-99.99,,2013-04-09 03:52:00,
2013-04-08 22:02:00,25.0,24.0,-100.00,North,355,28.0,34.0,95,-99.99,,,-99.99,,2013-04-09 04:02:00,
2013-04-08 22:12:00,25.0,24.0,-100.00,North,353,22.0,31.0,95,-99.99,,,-99.99,,2013-04-09 04:12:00,
2013-04-08 22:22:00,24.0,23.0,-100.00,NNW,335,22.0,29.0,94,-99.99,,,-99.99,,2013-04-09 04:22:00,
2013-04-08 22:32:00,24.0,23.0,-100.00,NNW,336,22.0,32.0,94,-99.99,,,-99.99,,2013-04-09 04:32:00,
2013-04-08 22:42:00,23.0,22.0,-100.00,NNW,340,20.0,29.0,94,-99.99,,,-99.99,,2013-04-09 04:42:00,
2013-04-08 22:52:00,23.0,22.0,-100.00,NNW,340,20.0,29.0,94,-99.99,,,-99.99,,2013-04-09 04:52:00,
2013-04-08 23:02:00,23.0,22.0,-100.00,NNW,338,15.0,28.0,94,-99.99,,,-99.99,,2013-04-09 05:02:00,
2013-04-08 23:12:00,22.0,21.0,-100.00,NNW,342,18.0,32.0,94,-99.99,,,-99.99,,2013-04-09 05:12:00,
2013-04-08 23:22:00,22.0,20.0,-100.00,NNW,336,22.0,27.0,94,-99.99,,,-99.99,,2013-04-09 05:22:00,
2013-04-08 23:32:00,21.0,19.0,-100.00,NNW,348,23.0,31.0,93,-99.99,,,-99.99,,2013-04-09 05:32:00,
2013-04-08 23:42:00,21.0,19.0,-100.00,NNW,342,18.0,30.0,93,-99.99,,,-99.99,,2013-04-09 05:42:00,
2013-04-08 23:52:00,21.0,19.0,-100.00,NNW,342,18.0,30.0,93,-99.99,,,-99.99,,2013-04-09 05:52:00,